Time;durP1;ratioP1;P1;durP2;ratioP2;P2;SDS_P1;SDS_P2;PMS_P1;PMS_P2;Temp;Humidity;BMP_temperature;BMP_pressure;BME280_temperature;BME280_humidity;BME280_pressure;Samples;Min_cycle;Max_cycle;Signal;HPM_P1;HPM_P2
2023/09/28 00:00:35;;;;;;;;;;;;;;;23.40;nan;101764.94;4982662;28;19922;-91
2023/09/28 00:03:00;;;;;;;;;;;;;;;23.40;nan;101756.72;4983520;28;19922;-91
2023/09/28 00:05:26;;;;;;;;;;;;;;;23.36;nan;101759.28;4982507;28;19924;-90
2023/09/28 00:07:51;;;;;;;;;;;;;;;23.33;nan;101759.88;4980359;28;19969;-89
2023/09/28 00:10:17;;;;;;;;;;;;;;;23.30;nan;101762.44;4983208;28;20389;-92
2023/09/28 00:12:46;;;;;;;;;;;;;;;23.27;nan;101763.06;4979618;28;20400;-91
2023/09/28 00:15:11;;;;;;;;;;;;;;;23.23;nan;101759.31;4979696;28;19937;-91
2023/09/28 00:17:40;;;;;;;;;;;;;;;23.23;nan;101762.88;4981630;28;20161;-91
2023/09/28 00:20:13;;;;;;;;;;;;;;;23.27;nan;101774.00;4982228;28;19930;-92
2023/09/28 00:22:39;;;;;;;;;;;;;;;23.29;nan;101774.47;4982315;28;20468;-91
2023/09/28 00:25:09;;;;;;;;;;;;;;;23.31;nan;101766.78;4982055;28;19918;-92
2023/09/28 00:27:35;;;;;;;;;;;;;;;23.34;nan;101769.72;4981245;28;19918;-92
2023/09/28 00:30:02;;;;;;;;;;;;;;;23.36;nan;101772.97;4982381;28;19926;-91
2023/09/28 00:32:27;;;;;;;;;;;;;;;23.35;nan;101770.53;4982134;28;19925;-91
2023/09/28 00:34:52;;;;;;;;;;;;;;;23.27;nan;101765.78;4981759;28;19933;-91
2023/09/28 00:37:18;;;;;;;;;;;;;;;23.20;nan;101772.50;4984481;28;20067;-91
2023/09/28 00:39:43;;;;;;;;;;;;;;;23.14;nan;101768.25;4983911;28;19929;-91
2023/09/28 00:42:09;;;;;;;;;;;;;;;23.07;nan;101773.34;4983514;28;19937;-91
2023/09/28 00:44:34;;;;;;;;;;;;;;;23.00;nan;101767.50;4982752;28;20362;-90
2023/09/28 00:47:01;;;;;;;;;;;;;;;22.94;nan;101767.88;4981595;28;20433;-92
2023/09/28 00:49:27;;;;;;;;;;;;;;;22.91;nan;101766.59;4983106;28;19929;-92
2023/09/28 00:51:52;;;;;;;;;;;;;;;22.87;nan;101760.13;4981506;28;19926;-92
2023/09/28 00:54:19;;;;;;;;;;;;;;;22.83;nan;101762.66;4981351;28;19922;-92
2023/09/28 00:56:45;;;;;;;;;;;;;;;22.79;nan;101763.53;5001300;28;19989;-91
2023/09/28 00:59:10;;;;;;;;;;;;;;;22.73;nan;101768.28;4980734;28;20041;-92
2023/09/28 01:01:36;;;;;;;;;;;;;;;22.66;nan;101761.63;4982390;28;20114;-92
2023/09/28 01:04:05;;;;;;;;;;;;;;;22.63;nan;101756.78;4981464;28;19925;-92
2023/09/28 01:06:31;;;;;;;;;;;;;;;22.58;nan;101758.50;4980866;28;20441;-92
2023/09/28 01:08:56;;;;;;;;;;;;;;;22.54;nan;101765.69;4978555;28;20061;-91
2023/09/28 01:11:22;;;;;;;;;;;;;;;22.51;nan;101765.47;4985725;28;20301;-92
2023/09/28 01:13:48;;;;;;;;;;;;;;;22.47;nan;101765.28;4981951;28;19922;-92
2023/09/28 01:16:14;;;;;;;;;;;;;;;22.42;nan;101757.19;4987034;28;20211;-92
2023/09/28 01:18:40;;;;;;;;;;;;;;;22.39;nan;101754.25;4984595;28;20385;-92
2023/09/28 01:21:10;;;;;;;;;;;;;;;22.31;nan;101745.66;4987911;28;19922;-92
2023/09/28 01:23:35;;;;;;;;;;;;;;;22.27;nan;101746.56;4985358;28;19921;-92
2023/09/28 01:26:01;;;;;;;;;;;;;;;22.24;nan;101744.44;4981235;28;19945;-91
2023/09/28 01:28:27;;;;;;;;;;;;;;;22.20;nan;101749.69;4986369;28;20493;-92
2023/09/28 01:30:52;;;;;;;;;;;;;;;22.17;nan;101747.56;5003016;28;19977;-92
2023/09/28 01:33:18;;;;;;;;;;;;;;;22.13;nan;101748.47;4984959;28;19922;-92
2023/09/28 01:35:43;;;;;;;;;;;;;;;22.10;nan;101740.91;4986188;28;19926;-92
2023/09/28 01:38:17;;;;;;;;;;;;;;;22.06;nan;101743.41;4987186;28;19957;-91
2023/09/28 01:40:43;;;;;;;;;;;;;;;22.03;nan;101733.88;4984542;28;19929;-92
2023/09/28 01:43:08;;;;;;;;;;;;;;;21.99;nan;101730.13;4983738;28;20020;-92
2023/09/28 01:45:34;;;;;;;;;;;;;;;21.96;nan;101727.19;4986140;28;19928;-92
2023/09/28 01:47:59;;;;;;;;;;;;;;;21.93;nan;101725.06;4988708;28;19922;-92
2023/09/28 01:50:24;;;;;;;;;;;;;;;21.88;nan;101712.31;4985989;28;20317;-91
2023/09/28 01:52:50;;;;;;;;;;;;;;;21.85;nan;101726.56;4985492;28;20701;-91
2023/09/28 01:55:15;;;;;;;;;;;;;;;21.83;nan;101717.06;4986151;28;20013;-92
2023/09/28 01:57:40;;;;;;;;;;;;;;;21.80;nan;101715.75;4985184;28;19968;-92
2023/09/28 02:00:18;;;;;;;;;;;;;;;21.79;nan;101722.31;4985945;28;20373;-91
2023/09/28 02:02:44;;;;;;;;;;;;;;;21.77;nan;101713.63;4985693;28;19937;-92
2023/09/28 02:05:11;;;;;;;;;;;;;;;21.76;nan;101714.75;5000297;28;19922;-92
2023/09/28 02:07:37;;;;;;;;;;;;;;;21.74;nan;101716.16;4985029;28;19922;-92
2023/09/28 02:10:04;;;;;;;;;;;;;;;21.71;nan;101720.25;4985106;28;19972;-92
2023/09/28 02:12:29;;;;;;;;;;;;;;;21.65;nan;101716.81;4981748;28;19972;-92
2023/09/28 02:14:55;;;;;;;;;;;;;;;21.61;nan;101715.81;4982241;28;19914;-92
2023/09/28 02:17:20;;;;;;;;;;;;;;;21.56;nan;101713.16;4985988;28;19922;-91
2023/09/28 02:19:47;;;;;;;;;;;;;;;21.48;nan;101711.09;4998961;28;19918;-93
2023/09/28 02:22:13;;;;;;;;;;;;;;;21.42;nan;101712.31;4984966;28;20244;-92
2023/09/28 02:24:38;;;;;;;;;;;;;;;21.39;nan;101712.91;5001840;28;20300;-92
2023/09/28 02:27:03;;;;;;;;;;;;;;;21.35;nan;101707.22;5002514;28;19925;-92
2023/09/28 02:29:28;;;;;;;;;;;;;;;21.33;nan;101698.53;4985415;28;19976;-92
2023/09/28 02:31:54;;;;;;;;;;;;;;;21.33;nan;101703.19;4984193;28;20307;-92
2023/09/28 02:34:19;;;;;;;;;;;;;;;21.32;nan;101702.38;4984731;28;20344;-93
2023/09/28 02:36:44;;;;;;;;;;;;;;;21.31;nan;101706.19;4983756;28;19926;-93
2023/09/28 02:39:10;;;;;;;;;;;;;;;21.30;nan;101709.22;4985840;28;19925;-92
2023/09/28 02:41:35;;;;;;;;;;;;;;;21.28;nan;101704.06;4984902;28;19980;-92
2023/09/28 02:44:01;;;;;;;;;;;;;;;21.26;nan;101700.84;4983987;28;20381;-92
2023/09/28 02:46:26;;;;;;;;;;;;;;;21.24;nan;101702.22;4985894;28;19985;-92
2023/09/28 02:48:51;;;;;;;;;;;;;;;21.22;nan;101699.78;4985422;28;19980;-91
2023/09/28 02:51:17;;;;;;;;;;;;;;;21.20;nan;101703.91;4984879;28;19922;-92
2023/09/28 02:53:42;;;;;;;;;;;;;;;21.18;nan;101700.66;4979965;28;19925;-92
2023/09/28 02:56:08;;;;;;;;;;;;;;;21.15;nan;101691.16;4981244;28;19925;-93
2023/09/28 02:58:34;;;;;;;;;;;;;;;21.13;nan;101698.81;4978311;28;20025;-92
2023/09/28 03:00:59;;;;;;;;;;;;;;;21.11;nan;101703.75;4982621;28;20417;-92
2023/09/28 03:03:25;;;;;;;;;;;;;;;21.10;nan;101699.41;4986532;28;19932;-90
2023/09/28 03:05:56;;;;;;;;;;;;;;;21.09;nan;101700.53;4983527;28;19933;-92
2023/09/28 03:08:22;;;;;;;;;;;;;;;21.05;nan;101696.78;4986867;28;20221;-92
2023/09/28 03:10:47;;;;;;;;;;;;;;;21.06;nan;101698.41;4986276;28;20008;-92
2023/09/28 03:13:13;;;;;;;;;;;;;;;21.09;nan;101695.06;4986448;28;19968;-92
2023/09/28 03:15:44;;;;;;;;;;;;;;;21.15;nan;101699.34;5001148;28;19949;-92
2023/09/28 03:18:13;;;;;;;;;;;;;;;21.23;nan;101698.69;4984491;28;20080;-92
2023/09/28 03:20:38;;;;;;;;;;;;;;;21.32;nan;101690.66;4982570;28;20314;-92
2023/09/28 03:23:04;;;;;;;;;;;;;;;21.36;nan;101692.50;4987863;28;19949;-92
2023/09/28 03:25:30;;;;;;;;;;;;;;;21.41;nan;101686.97;4983589;28;19926;-92
2023/09/28 03:27:56;;;;;;;;;;;;;;;21.45;nan;101687.16;4981444;28;19925;-92
2023/09/28 03:30:22;;;;;;;;;;;;;;;21.48;nan;101688.50;4984110;28;19925;-91
2023/09/28 03:32:48;;;;;;;;;;;;;;;21.51;nan;101688.69;4980567;28;19926;-92
2023/09/28 03:35:14;;;;;;;;;;;;;;;21.55;nan;101684.28;4983858;28;19925;-92
2023/09/28 03:37:40;;;;;;;;;;;;;;;21.58;nan;101685.59;4999033;28;19957;-92
2023/09/28 03:40:12;;;;;;;;;;;;;;;21.60;nan;101691.56;4982316;28;19922;-92
2023/09/28 03:42:42;;;;;;;;;;;;;;;21.62;nan;101689.34;4986999;28;20436;-92
2023/09/28 03:45:09;;;;;;;;;;;;;;;21.63;nan;101693.69;4985772;28;19917;-92
2023/09/28 03:47:38;;;;;;;;;;;;;;;21.64;nan;101693.38;4985622;28;19918;-92
2023/09/28 03:50:04;;;;;;;;;;;;;;;21.66;nan;101695.81;4983316;28;19996;-92
2023/09/28 03:52:30;;;;;;;;;;;;;;;21.67;nan;101694.69;4984243;28;19918;-92
2023/09/28 03:54:56;;;;;;;;;;;;;;;21.69;nan;101698.75;4986042;28;19926;-92
2023/09/28 03:57:21;;;;;;;;;;;;;;;21.69;nan;101701.47;4985561;28;19918;-92
2023/09/28 03:59:47;;;;;;;;;;;;;;;21.70;nan;101703.09;4983319;28;19928;-92
2023/09/28 04:02:13;;;;;;;;;;;;;;;21.70;nan;101705.00;4983302;28;19926;-92
2023/09/28 04:04:38;;;;;;;;;;;;;;;21.71;nan;101712.06;4981639;28;19925;-92
2023/09/28 04:07:03;;;;;;;;;;;;;;;21.70;nan;101697.63;4984123;28;19922;-92
2023/09/28 04:09:29;;;;;;;;;;;;;;;21.70;nan;101703.09;4985670;28;20393;-92
2023/09/28 04:11:55;;;;;;;;;;;;;;;21.72;nan;101694.59;4984384;28;19953;-91
2023/09/28 04:14:22;;;;;;;;;;;;;;;21.74;nan;101692.41;4986399;28;19953;-92
2023/09/28 04:16:47;;;;;;;;;;;;;;;21.75;nan;101696.75;4985505;28;19961;-92
2023/09/28 04:19:12;;;;;;;;;;;;;;;21.76;nan;101695.66;4986993;28;19960;-93
2023/09/28 04:21:38;;;;;;;;;;;;;;;21.78;nan;101696.16;4982208;28;19929;-92
2023/09/28 04:24:03;;;;;;;;;;;;;;;21.80;nan;101690.38;4983610;28;19922;-93
2023/09/28 04:26:29;;;;;;;;;;;;;;;21.80;nan;101684.94;4983271;28;20040;-92
2023/09/28 04:28:54;;;;;;;;;;;;;;;21.81;nan;101686.53;4981385;28;19926;-93
2023/09/28 04:31:20;;;;;;;;;;;;;;;21.81;nan;101681.91;4984913;28;20005;-93
2023/09/28 04:33:45;;;;;;;;;;;;;;;21.81;nan;101686.53;4985399;28;19922;-92
2023/09/28 04:36:11;;;;;;;;;;;;;;;21.81;nan;101684.63;4982445;28;19965;-92
2023/09/28 04:38:36;;;;;;;;;;;;;;;21.80;nan;101685.75;4983457;28;19918;-92
2023/09/28 04:41:02;;;;;;;;;;;;;;;21.79;nan;101688.78;4983159;28;19955;-92
2023/09/28 04:43:28;;;;;;;;;;;;;;;21.73;nan;101696.25;4985042;28;19922;-92
2023/09/28 04:45:53;;;;;;;;;;;;;;;21.70;nan;101692.19;4981689;28;19963;-92
2023/09/28 04:48:18;;;;;;;;;;;;;;;21.71;nan;101688.34;4983356;28;19918;-92
2023/09/28 04:50:44;;;;;;;;;;;;;;;21.71;nan;101685.59;4982727;28;19925;-92
2023/09/28 04:53:09;;;;;;;;;;;;;;;21.73;nan;101693.53;4988193;28;19957;-92
2023/09/28 04:55:34;;;;;;;;;;;;;;;21.74;nan;101686.94;4986009;28;19918;-93
2023/09/28 04:58:00;;;;;;;;;;;;;;;21.75;nan;101685.84;4997783;28;19918;-92
2023/09/28 05:00:26;;;;;;;;;;;;;;;21.77;nan;101682.81;4983269;28;19932;-91
2023/09/28 05:02:52;;;;;;;;;;;;;;;21.78;nan;101687.97;4982756;28;20000;-90
2023/09/28 05:05:18;;;;;;;;;;;;;;;21.79;nan;101692.31;4985319;28;20132;-91
2023/09/28 05:07:43;;;;;;;;;;;;;;;21.77;nan;101689.06;5006716;28;20884;-91
2023/09/28 05:10:08;;;;;;;;;;;;;;;21.78;nan;101693.41;4988865;28;19918;-91
2023/09/28 05:12:34;;;;;;;;;;;;;;;21.80;nan;101691.19;4990586;28;19941;-91
2023/09/28 05:14:59;;;;;;;;;;;;;;;21.82;nan;101697.16;4981270;28;20036;-91
2023/09/28 05:17:24;;;;;;;;;;;;;;;21.84;nan;101694.13;4980514;28;20576;-90
2023/09/28 05:19:50;;;;;;;;;;;;;;;21.84;nan;101703.13;4985372;28;19925;-90
2023/09/28 05:22:15;;;;;;;;;;;;;;;21.86;nan;101700.09;4983705;28;19926;-91
2023/09/28 05:24:40;;;;;;;;;;;;;;;21.89;nan;101702.22;4984391;28;20352;-90
2023/09/28 05:27:06;;;;;;;;;;;;;;;21.91;nan;101700.00;4987749;28;19918;-91
2023/09/28 05:29:31;;;;;;;;;;;;;;;21.92;nan;101705.16;4985251;28;20420;-91
2023/09/28 05:31:56;;;;;;;;;;;;;;;21.96;nan;101703.44;4981503;28;19925;-91
2023/09/28 05:34:22;;;;;;;;;;;;;;;22.00;nan;101706.38;4986524;28;19918;-91
2023/09/28 05:36:47;;;;;;;;;;;;;;;22.03;nan;101712.03;4999127;28;20068;-93
2023/09/28 05:39:13;;;;;;;;;;;;;;;22.06;nan;101712.56;4980128;28;20005;-94
2023/09/28 05:41:38;;;;;;;;;;;;;;;22.09;nan;101706.53;4982414;28;19930;-92
2023/09/28 05:44:03;;;;;;;;;;;;;;;22.11;nan;101702.38;4983612;28;19929;-93
2023/09/28 05:46:30;;;;;;;;;;;;;;;22.16;nan;101707.75;4982181;28;20345;-92
2023/09/28 05:48:55;;;;;;;;;;;;;;;22.23;nan;101701.88;4983943;28;19937;-91
2023/09/28 05:51:20;;;;;;;;;;;;;;;22.26;nan;101701.25;4984386;28;19921;-90
2023/09/28 05:53:46;;;;;;;;;;;;;;;22.31;nan;101701.19;4983014;28;19922;-90
2023/09/28 05:56:12;;;;;;;;;;;;;;;22.31;nan;101706.63;4984043;28;20032;-93
2023/09/28 05:58:37;;;;;;;;;;;;;;;22.36;nan;101700.25;4985826;28;20005;-93
2023/09/28 06:01:09;;;;;;;;;;;;;;;22.41;nan;101703.69;4983296;28;19934;-90
2023/09/28 06:03:38;;;;;;;;;;;;;;;22.49;nan;101702.19;4985411;28;21443;-92
2023/09/28 06:06:15;;;;;;;;;;;;;;;22.57;nan;101707.72;4984122;28;19922;-92
2023/09/28 06:08:40;;;;;;;;;;;;;;;22.63;nan;101702.97;5000692;28;19918;-92
2023/09/28 06:11:06;;;;;;;;;;;;;;;22.69;nan;101703.66;4987238;28;19928;-92
2023/09/28 06:13:31;;;;;;;;;;;;;;;22.78;nan;101708.06;4985156;28;20301;-90
2023/09/28 06:15:56;;;;;;;;;;;;;;;22.82;nan;101703.66;4986031;28;20283;-91
2023/09/28 06:18:22;;;;;;;;;;;;;;;22.86;nan;101701.94;4986707;28;20395;-92
2023/09/28 06:20:47;;;;;;;;;;;;;;;22.94;nan;101696.84;4982624;28;19936;-93
2023/09/28 06:23:14;;;;;;;;;;;;;;;22.99;nan;101702.22;4982844;28;19988;-93
2023/09/28 06:25:41;;;;;;;;;;;;;;;23.07;nan;101702.25;4998804;28;19922;-92
2023/09/28 06:28:07;;;;;;;;;;;;;;;23.15;nan;101706.97;4985209;28;19957;-89
2023/09/28 06:30:32;;;;;;;;;;;;;;;23.21;nan;101703.03;4999721;28;20386;-93
2023/09/28 06:32:57;;;;;;;;;;;;;;;23.28;nan;101701.78;4981147;28;19950;-89
2023/09/28 06:35:22;;;;;;;;;;;;;;;23.35;nan;101707.63;4987954;28;19930;-92
2023/09/28 06:37:49;;;;;;;;;;;;;;;23.41;nan;101711.84;4982627;28;19929;-93
2023/09/28 06:40:15;;;;;;;;;;;;;;;23.44;nan;101712.03;4983488;28;19922;-89
2023/09/28 06:42:40;;;;;;;;;;;;;;;23.49;nan;101714.63;4985187;28;19933;-89
2023/09/28 06:45:06;;;;;;;;;;;;;;;23.54;nan;101724.66;4984053;28;19922;-89
2023/09/28 06:47:32;;;;;;;;;;;;;;;23.63;nan;101730.22;4981713;28;19980;-89
2023/09/28 06:49:57;;;;;;;;;;;;;;;23.74;nan;101737.03;5001702;28;20374;-87
2023/09/28 06:52:23;;;;;;;;;;;;;;;23.83;nan;101739.81;4983324;28;19917;-88
2023/09/28 06:54:49;;;;;;;;;;;;;;;23.90;nan;101730.06;4985200;28;19918;-89
2023/09/28 06:57:14;;;;;;;;;;;;;;;24.01;nan;101736.06;4986137;28;20506;-88
2023/09/28 06:59:39;;;;;;;;;;;;;;;24.11;nan;101741.25;4986511;28;20893;-89
2023/09/28 07:02:05;;;;;;;;;;;;;;;24.22;nan;101728.88;4978998;28;19980;-89
2023/09/28 07:04:30;;;;;;;;;;;;;;;24.33;nan;101733.00;4983862;28;19963;-88
2023/09/28 07:06:56;;;;;;;;;;;;;;;24.44;nan;101736.28;4982410;28;19922;-89
2023/09/28 07:09:21;;;;;;;;;;;;;;;24.54;nan;101735.16;4982546;28;20370;-89
2023/09/28 07:11:46;;;;;;;;;;;;;;;24.63;nan;101733.25;4979010;28;19922;-89
2023/09/28 07:14:12;;;;;;;;;;;;;;;24.73;nan;101730.19;4981877;28;19981;-89
2023/09/28 07:16:38;;;;;;;;;;;;;;;24.88;nan;101723.44;4987481;28;19964;-89
2023/09/28 07:19:05;;;;;;;;;;;;;;;24.99;nan;101739.31;4984914;28;20460;-88
2023/09/28 07:21:30;;;;;;;;;;;;;;;25.11;nan;101748.81;4984065;28;19925;-90
2023/09/28 07:23:55;;;;;;;;;;;;;;;25.22;nan;101755.59;5000606;28;19972;-90
2023/09/28 07:26:21;;;;;;;;;;;;;;;25.30;nan;101746.53;4983353;28;19934;-89
2023/09/28 07:28:46;;;;;;;;;;;;;;;25.41;nan;101755.28;4980609;28;19922;-89
2023/09/28 07:31:13;;;;;;;;;;;;;;;25.54;nan;101755.09;4981609;28;20106;-89
2023/09/28 07:33:39;;;;;;;;;;;;;;;25.67;nan;101747.00;4982874;28;20378;-89
2023/09/28 07:36:05;;;;;;;;;;;;;;;25.76;nan;101743.13;4982883;28;19917;-90
2023/09/28 07:38:32;;;;;;;;;;;;;;;25.92;nan;101739.88;4990597;28;19918;-92
2023/09/28 07:40:58;;;;;;;;;;;;;;;26.05;nan;101752.59;4986367;28;19980;-88
2023/09/28 07:43:24;;;;;;;;;;;;;;;26.12;nan;101753.69;4984525;28;20583;-88
2023/09/28 07:45:49;;;;;;;;;;;;;;;26.22;nan;101749.78;4982589;28;20182;-88
2023/09/28 07:48:15;;;;;;;;;;;;;;;26.34;nan;101749.06;4984510;28;19922;-88
2023/09/28 07:50:41;;;;;;;;;;;;;;;26.49;nan;101745.78;4985477;28;19922;-88
2023/09/28 07:53:06;;;;;;;;;;;;;;;26.64;nan;101747.97;4985767;28;20508;-89
2023/09/28 07:55:31;;;;;;;;;;;;;;;26.80;nan;101753.69;4988570;28;19918;-88
2023/09/28 07:57:58;;;;;;;;;;;;;;;26.89;nan;101751.66;4984763;28;20354;-88
2023/09/28 08:00:23;;;;;;;;;;;;;;;26.99;nan;101754.03;4981877;28;20008;-88
2023/09/28 08:02:49;;;;;;;;;;;;;;;27.09;nan;101758.34;4982339;28;20398;-88
2023/09/28 08:05:14;;;;;;;;;;;;;;;27.19;nan;101757.94;4979588;28;20401;-88
2023/09/28 08:07:40;;;;;;;;;;;;;;;27.32;nan;101754.13;4998172;28;20435;-89
2023/09/28 08:10:05;;;;;;;;;;;;;;;27.46;nan;101756.56;4978436;28;20444;-88
2023/09/28 08:12:30;;;;;;;;;;;;;;;27.54;nan;101757.66;4984648;28;20068;-89
2023/09/28 08:14:56;;;;;;;;;;;;;;;27.67;nan;101756.59;4980571;28;19918;-91
2023/09/28 08:17:21;;;;;;;;;;;;;;;27.82;nan;101755.91;4988620;28;19936;-91
2023/09/28 08:19:46;;;;;;;;;;;;;;;27.95;nan;101757.56;4984926;28;19975;-91
2023/09/28 08:22:12;;;;;;;;;;;;;;;28.12;nan;101761.25;4979821;28;20012;-90
2023/09/28 08:24:37;;;;;;;;;;;;;;;28.25;nan;101760.13;4977039;28;20364;-91
2023/09/28 08:27:04;;;;;;;;;;;;;;;28.37;nan;101749.13;4985167;28;19929;-89
2023/09/28 08:29:29;;;;;;;;;;;;;;;28.49;nan;101757.38;4983201;28;20016;-89
2023/09/28 08:31:55;;;;;;;;;;;;;;;28.59;nan;101754.19;4977977;28;20452;-89
2023/09/28 08:34:20;;;;;;;;;;;;;;;28.67;nan;101760.69;4979035;28;19932;-90
2023/09/28 08:36:45;;;;;;;;;;;;;;;28.76;nan;101750.38;4979964;28;19918;-88
2023/09/28 08:39:12;;;;;;;;;;;;;;;28.86;nan;101747.13;4981796;28;19921;-88
2023/09/28 08:41:59;;;;;;;;;;;;;;;28.95;nan;101754.50;4979639;28;20293;-89
2023/09/28 08:44:28;;;;;;;;;;;;;;;29.08;nan;101753.28;4980153;28;19976;-89
2023/09/28 08:46:57;;;;;;;;;;;;;;;29.11;nan;101747.88;4982301;28;20499;-90
2023/09/28 08:49:25;;;;;;;;;;;;;;;29.22;nan;101748.19;4984598;28;19965;-90
2023/09/28 08:51:51;;;;;;;;;;;;;;;29.29;nan;101751.16;4984424;28;19918;-91
2023/09/28 08:54:17;;;;;;;;;;;;;;;29.35;nan;101749.75;4994640;28;19921;-90
2023/09/28 08:56:43;;;;;;;;;;;;;;;29.43;nan;101759.03;4984235;28;19926;-90
2023/09/28 08:59:09;;;;;;;;;;;;;;;29.53;nan;101755.78;4982942;28;19945;-89
2023/09/28 09:01:35;;;;;;;;;;;;;;;29.66;nan;101751.81;4981471;28;20020;-90
2023/09/28 09:04:01;;;;;;;;;;;;;;;29.82;nan;101740.78;4981348;28;20377;-88
2023/09/28 09:06:30;;;;;;;;;;;;;;;29.97;nan;101741.94;4978202;28;19933;-93
2023/09/28 09:09:00;;;;;;;;;;;;;;;30.11;nan;101741.53;4981502;28;19918;-90
2023/09/28 09:11:27;;;;;;;;;;;;;;;30.22;nan;101737.06;4991537;28;19984;-89
2023/09/28 09:13:56;;;;;;;;;;;;;;;30.35;nan;101742.16;4996045;28;19933;-89
2023/09/28 09:16:22;;;;;;;;;;;;;;;30.52;nan;101742.91;4981148;28;20561;-90
2023/09/28 09:18:48;;;;;;;;;;;;;;;30.58;nan;101747.00;4980822;28;19925;-90
2023/09/28 09:21:13;;;;;;;;;;;;;;;30.75;nan;101746.63;4993956;28;20429;-91
2023/09/28 09:23:39;;;;;;;;;;;;;;;30.84;nan;101749.19;4977750;28;19921;-89
2023/09/28 09:26:04;;;;;;;;;;;;;;;30.89;nan;101749.72;4981333;28;20287;-90
2023/09/28 09:28:32;;;;;;;;;;;;;;;30.97;nan;101751.47;4981916;28;19934;-89
2023/09/28 09:30:58;;;;;;;;;;;;;;;31.05;nan;101748.84;4979998;28;19922;-93
2023/09/28 09:33:24;;;;;;;;;;;;;;;31.12;nan;101746.25;4984219;28;20287;-92
2023/09/28 09:35:50;;;;;;;;;;;;;;;31.20;nan;101745.22;4997989;28;19953;-90
2023/09/28 09:38:21;;;;;;;;;;;;;;;31.29;nan;101740.28;4990410;28;20016;-94
2023/09/28 09:40:57;;;;;;;;;;;;;;;31.35;nan;101747.13;5003139;28;19921;-93
2023/09/28 09:43:23;;;;;;;;;;;;;;;31.42;nan;101738.97;4986980;28;19922;-93
2023/09/28 09:45:48;;;;;;;;;;;;;;;31.57;nan;101751.09;4986895;28;19933;-91
2023/09/28 09:48:13;;;;;;;;;;;;;;;31.62;nan;101744.47;4988849;28;19948;-90
2023/09/28 09:50:39;;;;;;;;;;;;;;;31.73;nan;101742.72;4986898;28;19923;-90
2023/09/28 09:53:04;;;;;;;;;;;;;;;31.88;nan;101752.88;4985006;28;21781;-89
2023/09/28 09:55:30;;;;;;;;;;;;;;;31.96;nan;101756.56;4988638;28;20287;-90
2023/09/28 09:57:59;;;;;;;;;;;;;;;32.05;nan;101754.38;4989477;28;19918;-90
2023/09/28 10:00:26;;;;;;;;;;;;;;;32.14;nan;101757.69;4986142;28;20013;-90
2023/09/28 10:02:53;;;;;;;;;;;;;;;32.30;nan;101752.81;4984245;28;19932;-90
2023/09/28 10:05:21;;;;;;;;;;;;;;;32.46;nan;101745.13;4981508;28;19926;-89
2023/09/28 10:07:48;;;;;;;;;;;;;;;32.55;nan;101744.88;4987558;28;19917;-90
2023/09/28 10:10:14;;;;;;;;;;;;;;;32.63;nan;101746.56;4990144;28;20020;-90
2023/09/28 10:12:39;;;;;;;;;;;;;;;32.79;nan;101745.59;4984453;28;19922;-90
2023/09/28 10:15:05;;;;;;;;;;;;;;;32.94;nan;101748.22;4988959;28;19918;-89
2023/09/28 10:17:31;;;;;;;;;;;;;;;32.99;nan;101747.09;4986778;28;19932;-90
2023/09/28 10:19:57;;;;;;;;;;;;;;;32.98;nan;101754.63;4984274;28;19924;-89
2023/09/28 10:22:22;;;;;;;;;;;;;;;32.93;nan;101754.94;4986069;28;19926;-89
2023/09/28 10:24:48;;;;;;;;;;;;;;;32.95;nan;101749.81;4988796;28;19921;-89
2023/09/28 10:27:14;;;;;;;;;;;;;;;32.92;nan;101756.13;4983514;28;19922;-90
2023/09/28 10:29:41;;;;;;;;;;;;;;;32.99;nan;101760.97;4988614;28;20393;-89
2023/09/28 10:32:27;;;;;;;;;;;;;;;33.14;nan;101762.75;4987345;28;20436;-92
2023/09/28 10:35:11;;;;;;;;;;;;;;;33.29;nan;101742.31;4978956;28;20246;-90
2023/09/28 10:37:37;;;;;;;;;;;;;;;33.41;nan;101740.47;4987066;28;20007;-89
2023/09/28 10:40:06;;;;;;;;;;;;;;;33.55;nan;101749.75;4982971;28;19929;-93
2023/09/28 10:42:32;;;;;;;;;;;;;;;33.66;nan;101744.31;4999741;28;20615;-90
2023/09/28 10:45:01;;;;;;;;;;;;;;;33.73;nan;101744.34;4981739;28;22154;-90
2023/09/28 10:47:27;;;;;;;;;;;;;;;33.77;nan;101750.78;4983679;28;19924;-89
2023/09/28 10:50:03;;;;;;;;;;;;;;;33.81;nan;101751.59;4991924;28;19918;-90
2023/09/28 10:52:28;;;;;;;;;;;;;;;33.87;nan;101752.06;4990238;28;20549;-87
2023/09/28 10:54:54;;;;;;;;;;;;;;;33.89;nan;101752.47;4983201;28;19926;-88
2023/09/28 10:57:27;;;;;;;;;;;;;;;34.00;nan;101744.25;4987823;28;19932;-89
2023/09/28 10:59:57;;;;;;;;;;;;;;;34.10;nan;101743.50;4983643;28;19933;-89
2023/09/28 11:02:22;;;;;;;;;;;;;;;34.13;nan;101738.00;4981493;28;19929;-86
2023/09/28 11:04:48;;;;;;;;;;;;;;;34.17;nan;101736.03;4981676;28;19922;-85
2023/09/28 11:07:13;;;;;;;;;;;;;;;34.25;nan;101742.44;4979360;28;19922;-86
2023/09/28 11:09:40;;;;;;;;;;;;;;;34.34;nan;101742.91;4980059;28;20468;-86
2023/09/28 11:12:13;;;;;;;;;;;;;;;34.36;nan;101753.69;4976321;28;19918;-85
2023/09/28 11:14:41;;;;;;;;;;;;;;;34.42;nan;101752.94;4991259;28;19922;-89
2023/09/28 11:17:07;;;;;;;;;;;;;;;34.45;nan;101751.34;4984689;28;19969;-87
2023/09/28 11:19:34;;;;;;;;;;;;;;;34.55;nan;101761.75;4985260;28;20656;-88
2023/09/28 11:21:59;;;;;;;;;;;;;;;34.67;nan;101755.09;4995119;28;19945;-84
2023/09/28 11:24:26;;;;;;;;;;;;;;;34.69;nan;101749.91;4981918;28;19918;-86
2023/09/28 11:26:51;;;;;;;;;;;;;;;34.72;nan;101744.38;4973713;28;19964;-85
2023/09/28 11:29:16;;;;;;;;;;;;;;;34.76;nan;101750.75;4982746;28;19952;-85
2023/09/28 11:31:48;;;;;;;;;;;;;;;34.90;nan;101744.47;4985619;28;20456;-87
2023/09/28 11:34:26;;;;;;;;;;;;;;;34.89;nan;101734.53;4979630;28;20292;-87
2023/09/28 11:36:52;;;;;;;;;;;;;;;34.97;nan;101725.00;4975745;28;19928;-89
2023/09/28 11:39:18;;;;;;;;;;;;;;;35.05;nan;101740.56;4995596;28;19929;-88
2023/09/28 11:41:59;;;;;;;;;;;;;;;35.06;nan;101731.03;4990905;28;19929;-88
2023/09/28 11:44:26;;;;;;;;;;;;;;;35.05;nan;101746.13;4983980;28;19925;-86
2023/09/28 11:46:52;;;;;;;;;;;;;;;34.97;nan;101741.72;4981139;28;19973;-88
2023/09/28 11:49:19;;;;;;;;;;;;;;;34.98;nan;101745.31;4982024;28;20449;-90
2023/09/28 11:51:44;;;;;;;;;;;;;;;35.07;nan;101746.53;4998685;28;19957;-86
2023/09/28 11:54:11;;;;;;;;;;;;;;;35.21;nan;101743.00;4975776;28;20785;-87
2023/09/28 11:56:37;;;;;;;;;;;;;;;35.33;nan;101739.84;4983142;28;19921;-87
2023/09/28 11:59:03;;;;;;;;;;;;;;;35.52;nan;101735.94;4981683;28;20369;-86
2023/09/28 12:01:29;;;;;;;;;;;;;;;35.63;nan;101736.75;4977560;28;20453;-87
2023/09/28 12:03:56;;;;;;;;;;;;;;;35.71;nan;101741.13;4978729;28;19922;-86
2023/09/28 12:06:22;;;;;;;;;;;;;;;35.72;nan;101745.50;4982348;28;19921;-87
2023/09/28 12:08:47;;;;;;;;;;;;;;;35.65;nan;101739.94;4981816;28;20391;-90
2023/09/28 12:11:12;;;;;;;;;;;;;;;35.67;nan;101742.34;4979739;28;19922;-90
2023/09/28 12:13:38;;;;;;;;;;;;;;;35.76;nan;101739.97;4980860;28;19980;-88
2023/09/28 12:16:03;;;;;;;;;;;;;;;35.89;nan;101740.38;4979262;28;20455;-84
2023/09/28 12:18:29;;;;;;;;;;;;;;;35.96;nan;101749.56;4979443;28;20052;-85
2023/09/28 12:20:54;;;;;;;;;;;;;;;35.88;nan;101741.56;4974095;28;19926;-88
2023/09/28 12:23:20;;;;;;;;;;;;;;;35.84;nan;101746.38;4973839;28;20017;-85
2023/09/28 12:25:45;;;;;;;;;;;;;;;35.86;nan;101738.41;4974625;28;20012;-85
2023/09/28 12:28:10;;;;;;;;;;;;;;;35.94;nan;101751.16;4978027;28;19922;-85
2023/09/28 12:30:36;;;;;;;;;;;;;;;35.98;nan;101747.16;4975912;28;20019;-85
2023/09/28 12:33:01;;;;;;;;;;;;;;;36.02;nan;101736.81;4982507;28;19927;-88
2023/09/28 12:35:26;;;;;;;;;;;;;;;35.96;nan;101741.19;4977401;28;19973;-87
2023/09/28 12:37:53;;;;;;;;;;;;;;;35.96;nan;101732.81;4976776;28;20429;-86
2023/09/28 12:40:19;;;;;;;;;;;;;;;35.92;nan;101734.81;4978851;28;20063;-88
2023/09/28 12:42:44;;;;;;;;;;;;;;;35.86;nan;101739.19;4974918;28;19941;-87
2023/09/28 12:45:10;;;;;;;;;;;;;;;35.76;nan;101739.97;4977285;28;20598;-86
2023/09/28 12:47:35;;;;;;;;;;;;;;;35.72;nan;101734.38;4978533;28;19929;-85
2023/09/28 12:50:02;;;;;;;;;;;;;;;35.79;nan;101736.38;4978427;28;19925;-86
2023/09/28 12:52:27;;;;;;;;;;;;;;;35.79;nan;101730.00;4977353;28;19921;-86